Lamar, CO (81052)

6:20 PM MDT on August 28, 2015 (GMT -0600)
Lamar Municipal | | Change Station
CLOSE
Current Station
Airport
Location: Lamar,
Elevation: 3704 ft
Nearby Weather Stations

Elev 3704 ft 38.07 °N, 102.69 °W | Updated 27 minutes ago

Partly Cloudy
Partly Cloudy
90 °F
Feels Like 90 °F
N
9
Wind Variable Wind from NE

Today
High -- | Low -- °F
--% Chance of Precip.
Yesterday
High -- | Low -- °F
Precip. -- in
6:16 AM 7:25 PM
Waxing Gibbous, 99% visible
Pressure 29.89 in
Visibility 6.0 miles
Clouds Few 10000 ft
Dew Point 50 °F
Humidity 25%
Rainfall 0.00 in
Snow Depth Not available.
UV 1 out of 12
Pollen 9.90 out of 12
Air Quality Not available.
Flu Activity Not available.
METAR KLAA 282353Z AUTO 04008KT 6SM HZ FEW100 32/10 A3003 RMK AO2 SLP120 T03220100 10333 20294 55004 TSNO
Pressure 29.89 in
Visibility 6.0 miles
Clouds Few 10000 ft
Dew Point 50 °F
Humidity 25%
Rainfall 0.00 in
Snow Depth Not available.
UV 1 out of 12
Pollen 9.90 out of 12
Air Quality Not available.
Flu Activity Not available.
METAR KLAA 282353Z AUTO 04008KT 6SM HZ FEW100 32/10 A3003 RMK AO2 SLP120 T03220100 10333 20294 55004 TSNO

10-Day Weather Forecast

×

Almanac

Astronomy

Aug. 28, 2015 Rise Set
Actual Time
Civil Twilight
Nautical Twilight
Astronomical Twilight
Moon
Length of Visible Light
Length of Day
Tomorrow will be .
, % of the Moon is Illuminated

Today's Extremes

State Highs State Lows

Community

WunderPhotos

Upload Photos

1,850,545 photos uploaded!

WunderBlogs® & News

Nearby

Air Quality

  Air Quality AQ Index Pollutant
Not available.

Snow Depth

Station Depth Elevation

Earthquake Activity

City Distance Mag. Time & Date
Minimum magnitude displayed is 2.5.

Coastal Water Temperatures

Place Temperature

Stations

Nearby Weather Stations

Station Location Temp. Windchill Dew Point Humidity Wind Precip. Elev Updated Type